Airfield :
LOGIN :

Register | Disclaimer

   EN    FR    IT 

 










Legend :    VFR   Marginal VFR   IFR   Intensive IFR   Very Intensive IFR
Visi :
Ceiling :
>= 8 km
>= 3000ft
5 to 8 km
1000 to 3000 ft
1500m to 5 km
500 to 1000 ft
800 to 1500m
200 to 500 ft
< 800m
< 200 ft
Symbols :   Thunderstorms  Fog  Heavy snow  Heavy precipitations  Wind > 20 kt
SIGMETs :     Misc.  Thunderstorms  Icing  Turbulence  Mountain Waves  Volcanic Ashes







- Airport Elevation : 375 ft
- IATA code : MST


EHBK - Maastricht Aachen

CURRENT METAR :
  • 190425Z AUTO 22009KT 8000 FEW015CB 07/05 Q1017

EXPIRED METARs :
  • 190355Z AUTO 22008KT 7000 SCT046 07/05 Q1017
  • 190325Z AUTO 23006KT 8000 -DZ FEW043 07/06 Q1017
  • 190255Z AUTO 25004KT 210V290 9999 FEW009 BKN017 OVC021 07/05 Q1017 REDZ
  • 190225Z AUTO 25005KT 220V290 9999 -UP OVC010 08/05 Q1017
  • 190155Z AUTO 24006KT 9999 OVC011 08/04 Q1017

TAF TAF EHBK
Valid from the 19 at 00:00 until the 20 at 06:00 UTC


182318Z 1900/2006 22008KT CAVOK
BECMG 1902/1905 7000 -RADZ BKN012
PROB30 1902/1907 4000 BR -DZ BKN009
BECMG 1906/1909 25014KT 9999 NSW BKN020
BECMG 1921/1924 22007KT
No reported NOTAMs for that airfield.



MET'MAP, your aeronautical weather chart ! - Copyright ORBIFLY December 2007 - Disclaimer

ORBIFLY MET'MAP TEAM :

Programming & Development : Alexandra Zaïnal
Concept & Development : Baudouin d'Aumeries
Co-Development & Prog : Marc-Olivier Méhu
Technical & hardware support : Manuel Goepfert

Contact : metmap@orbifly.com




SOURCES & CREDITS :

   NOAA